sensor_id;sensor_type;location;lat;lon;timestamp;temperature;humidity
17728;DHT22;8984;49.268;12.302;2023-04-07T00:00:53;3.00;99.90
17728;DHT22;8984;49.268;12.302;2023-04-07T00:03:20;3.00;99.90
17728;DHT22;8984;49.268;12.302;2023-04-07T00:05:49;3.00;99.90
17728;DHT22;8984;49.268;12.302;2023-04-07T00:08:16;3.00;99.90
17728;DHT22;8984;49.268;12.302;2023-04-07T00:10:42;2.90;99.90
17728;DHT22;8984;49.268;12.302;2023-04-07T00:13:10;2.90;99.90
17728;DHT22;8984;49.268;12.302;2023-04-07T00:15:36;2.90;99.90
17728;DHT22;8984;49.268;12.302;2023-04-07T00:18:03;2.80;99.90
17728;DHT22;8984;49.268;12.302;2023-04-07T00:20:31;2.90;99.90
17728;DHT22;8984;49.268;12.302;2023-04-07T00:22:59;2.80;99.90
17728;DHT22;8984;49.268;12.302;2023-04-07T00:25:26;2.80;99.90
17728;DHT22;8984;49.268;12.302;2023-04-07T00:27:53;2.80;99.90
17728;DHT22;8984;49.268;12.302;2023-04-07T00:30:20;2.80;99.90
17728;DHT22;8984;49.268;12.302;2023-04-07T00:32:46;2.70;99.90
17728;DHT22;8984;49.268;12.302;2023-04-07T00:35:13;2.70;99.90
17728;DHT22;8984;49.268;12.302;2023-04-07T00:37:40;2.60;99.90
17728;DHT22;8984;49.268;12.302;2023-04-07T00:40:09;2.60;99.90
17728;DHT22;8984;49.268;12.302;2023-04-07T00:42:36;2.60;99.90
17728;DHT22;8984;49.268;12.302;2023-04-07T00:45:04;2.60;99.90
17728;DHT22;8984;49.268;12.302;2023-04-07T00:47:31;2.60;99.90
17728;DHT22;8984;49.268;12.302;2023-04-07T00:49:57;2.60;99.90
17728;DHT22;8984;49.268;12.302;2023-04-07T00:52:24;2.60;99.90
17728;DHT22;8984;49.268;12.302;2023-04-07T00:54:54;2.50;99.90
17728;DHT22;8984;49.268;12.302;2023-04-07T00:57:22;2.50;99.90
17728;DHT22;8984;49.268;12.302;2023-04-07T00:59:50;2.50;99.90
17728;DHT22;8984;49.268;12.302;2023-04-07T01:02:21;2.50;99.90
17728;DHT22;8984;49.268;12.302;2023-04-07T01:04:53;2.50;99.90
17728;DHT22;8984;49.268;12.302;2023-04-07T01:07:23;2.50;99.90
17728;DHT22;8984;49.268;12.302;2023-04-07T01:09:56;2.40;99.90
17728;DHT22;8984;49.268;12.302;2023-04-07T01:12:34;2.40;99.90
17728;DHT22;8984;49.268;12.302;2023-04-07T01:15:06;2.40;99.90
17728;DHT22;8984;49.268;12.302;2023-04-07T01:17:34;2.40;99.90
17728;DHT22;8984;49.268;12.302;2023-04-07T01:20:04;2.30;99.90
17728;DHT22;8984;49.268;12.302;2023-04-07T01:22:34;2.30;99.90
17728;DHT22;8984;49.268;12.302;2023-04-07T01:25:26;2.30;99.90
17728;DHT22;8984;49.268;12.302;2023-04-07T01:28:14;2.30;99.90
17728;DHT22;8984;49.268;12.302;2023-04-07T01:30:51;2.30;99.90
17728;DHT22;8984;49.268;12.302;2023-04-07T01:33:20;2.30;99.90
17728;DHT22;8984;49.268;12.302;2023-04-07T01:35:48;2.30;99.90
17728;DHT22;8984;49.268;12.302;2023-04-07T01:38:16;2.30;99.90
17728;DHT22;8984;49.268;12.302;2023-04-07T01:40:43;2.30;99.90
17728;DHT22;8984;49.268;12.302;2023-04-07T01:43:11;2.20;99.90
17728;DHT22;8984;49.268;12.302;2023-04-07T01:45:38;2.20;99.90
17728;DHT22;8984;49.268;12.302;2023-04-07T01:48:08;2.20;99.90
17728;DHT22;8984;49.268;12.302;2023-04-07T01:50:36;2.10;99.90
17728;DHT22;8984;49.268;12.302;2023-04-07T01:53:04;2.10;99.90
17728;DHT22;8984;49.268;12.302;2023-04-07T01:55:31;2.00;99.90
17728;DHT22;8984;49.268;12.302;2023-04-07T01:57:58;2.00;99.90
17728;DHT22;8984;49.268;12.302;2023-04-07T02:00:29;2.00;99.90
17728;DHT22;8984;49.268;12.302;2023-04-07T02:03:00;2.00;99.90
17728;DHT22;8984;49.268;12.302;2023-04-07T02:05:34;1.90;99.90
17728;DHT22;8984;49.268;12.302;2023-04-07T02:08:03;1.90;99.90
17728;DHT22;8984;49.268;12.302;2023-04-07T02:10:34;1.80;99.90
17728;DHT22;8984;49.268;12.302;2023-04-07T02:13:02;1.80;99.90
17728;DHT22;8984;49.268;12.302;2023-04-07T02:15:30;1.70;99.90
17728;DHT22;8984;49.268;12.302;2023-04-07T02:17:58;1.80;99.90
17728;DHT22;8984;49.268;12.302;2023-04-07T02:20:27;1.70;99.90
17728;DHT22;8984;49.268;12.302;2023-04-07T02:22:56;1.70;99.90
17728;DHT22;8984;49.268;12.302;2023-04-07T02:25:25;1.70;99.90
17728;DHT22;8984;49.268;12.302;2023-04-07T02:27:53;1.70;99.90
17728;DHT22;8984;49.268;12.302;2023-04-07T02:30:21;1.70;99.90
17728;DHT22;8984;49.268;12.302;2023-04-07T02:32:48;1.80;99.90
17728;DHT22;8984;49.268;12.302;2023-04-07T02:35:15;1.80;99.90
17728;DHT22;8984;49.268;12.302;2023-04-07T02:37:42;1.70;99.90
17728;DHT22;8984;49.268;12.302;2023-04-07T02:40:11;1.70;99.90
17728;DHT22;8984;49.268;12.302;2023-04-07T02:42:38;1.70;99.90
17728;DHT22;8984;49.268;12.302;2023-04-07T02:45:06;1.70;99.90
17728;DHT22;8984;49.268;12.302;2023-04-07T02:47:34;1.70;99.90
17728;DHT22;8984;49.268;12.302;2023-04-07T02:50:01;1.60;99.90
17728;DHT22;8984;49.268;12.302;2023-04-07T02:52:28;1.60;99.90
17728;DHT22;8984;49.268;12.302;2023-04-07T02:54:58;1.60;99.90
17728;DHT22;8984;49.268;12.302;2023-04-07T02:57:26;1.60;99.90
17728;DHT22;8984;49.268;12.302;2023-04-07T02:59:53;1.60;99.90
17728;DHT22;8984;49.268;12.302;2023-04-07T03:02:22;1.60;99.90
17728;DHT22;8984;49.268;12.302;2023-04-07T03:04:50;1.60;99.90
17728;DHT22;8984;49.268;12.302;2023-04-07T03:07:17;1.50;99.90
17728;DHT22;8984;49.268;12.302;2023-04-07T03:09:44;1.50;99.90
17728;DHT22;8984;49.268;12.302;2023-04-07T03:12:11;1.60;99.90
17728;DHT22;8984;49.268;12.302;2023-04-07T03:14:39;1.50;99.90
17728;DHT22;8984;49.268;12.302;2023-04-07T03:17:05;1.50;99.90
17728;DHT22;8984;49.268;12.302;2023-04-07T03:19:32;1.50;99.90
17728;DHT22;8984;49.268;12.302;2023-04-07T03:21:59;1.50;99.90
17728;DHT22;8984;49.268;12.302;2023-04-07T03:24:26;1.50;99.90
17728;DHT22;8984;49.268;12.302;2023-04-07T03:26:52;1.50;99.90
17728;DHT22;8984;49.268;12.302;2023-04-07T03:29:19;1.50;99.90
17728;DHT22;8984;49.268;12.302;2023-04-07T03:31:47;1.50;99.90
17728;DHT22;8984;49.268;12.302;2023-04-07T03:34:14;1.50;99.90
17728;DHT22;8984;49.268;12.302;2023-04-07T03:36:41;1.50;99.90
17728;DHT22;8984;49.268;12.302;2023-04-07T03:39:07;1.40;99.90
17728;DHT22;8984;49.268;12.302;2023-04-07T03:41:34;1.30;99.90
17728;DHT22;8984;49.268;12.302;2023-04-07T03:44:01;1.30;99.90
17728;DHT22;8984;49.268;12.302;2023-04-07T03:46:28;1.30;99.90
17728;DHT22;8984;49.268;12.302;2023-04-07T03:48:56;1.30;99.90
17728;DHT22;8984;49.268;12.302;2023-04-07T03:51:24;1.30;99.90
17728;DHT22;8984;49.268;12.302;2023-04-07T03:53:52;1.30;99.90
17728;DHT22;8984;49.268;12.302;2023-04-07T03:56:19;1.30;99.90
17728;DHT22;8984;49.268;12.302;2023-04-07T03:58:46;1.30;99.90
17728;DHT22;8984;49.268;12.302;2023-04-07T04:01:13;1.30;99.90
17728;DHT22;8984;49.268;12.302;2023-04-07T04:03:40;1.30;99.90
17728;DHT22;8984;49.268;12.302;2023-04-07T04:06:08;1.20;99.90
17728;DHT22;8984;49.268;12.302;2023-04-07T04:08:35;1.20;99.90
17728;DHT22;8984;49.268;12.302;2023-04-07T04:11:02;1.10;99.90
17728;DHT22;8984;49.268;12.302;2023-04-07T04:13:29;1.10;99.90
17728;DHT22;8984;49.268;12.302;2023-04-07T04:15:55;1.10;99.90
17728;DHT22;8984;49.268;12.302;2023-04-07T04:18:22;1.00;99.90
17728;DHT22;8984;49.268;12.302;2023-04-07T04:20:49;1.00;99.90
17728;DHT22;8984;49.268;12.302;2023-04-07T04:23:17;1.00;99.90
17728;DHT22;8984;49.268;12.302;2023-04-07T04:25:44;1.00;99.90
17728;DHT22;8984;49.268;12.302;2023-04-07T04:28:11;1.00;99.90
17728;DHT22;8984;49.268;12.302;2023-04-07T04:30:38;0.90;99.90
17728;DHT22;8984;49.268;12.302;2023-04-07T04:33:05;0.90;99.90
17728;DHT22;8984;49.268;12.302;2023-04-07T04:35:32;0.90;99.90
17728;DHT22;8984;49.268;12.302;2023-04-07T04:37:58;0.90;99.90
17728;DHT22;8984;49.268;12.302;2023-04-07T04:40:26;0.90;99.90
17728;DHT22;8984;49.268;12.302;2023-04-07T04:42:53;0.90;99.90
17728;DHT22;8984;49.268;12.302;2023-04-07T04:45:20;0.90;99.90
17728;DHT22;8984;49.268;12.302;2023-04-07T04:47:47;0.90;99.90
17728;DHT22;8984;49.268;12.302;2023-04-07T04:50:15;0.90;99.90
17728;DHT22;8984;49.268;12.302;2023-04-07T04:52:42;0.90;99.90
17728;DHT22;8984;49.268;12.302;2023-04-07T04:55:09;0.90;99.90
17728;DHT22;8984;49.268;12.302;2023-04-07T04:57:38;0.90;99.90
17728;DHT22;8984;49.268;12.302;2023-04-07T05:00:05;0.90;99.90
17728;DHT22;8984;49.268;12.302;2023-04-07T05:02:33;0.90;99.90
17728;DHT22;8984;49.268;12.302;2023-04-07T05:04:59;1.00;99.90
17728;DHT22;8984;49.268;12.302;2023-04-07T05:07:26;1.00;99.90
17728;DHT22;8984;49.268;12.302;2023-04-07T05:09:53;1.00;99.90
17728;DHT22;8984;49.268;12.302;2023-04-07T05:12:20;1.10;99.90
17728;DHT22;8984;49.268;12.302;2023-04-07T05:14:48;1.30;99.90
17728;DHT22;8984;49.268;12.302;2023-04-07T05:17:15;1.80;99.90
17728;DHT22;8984;49.268;12.302;2023-04-07T05:19:42;2.50;99.90
17728;DHT22;8984;49.268;12.302;2023-04-07T05:22:09;3.10;99.90
17728;DHT22;8984;49.268;12.302;2023-04-07T05:24:36;3.70;99.90
17728;DHT22;8984;49.268;12.302;2023-04-07T05:27:03;4.30;99.90
17728;DHT22;8984;49.268;12.302;2023-04-07T05:29:30;4.80;99.90
17728;DHT22;8984;49.268;12.302;2023-04-07T05:31:58;5.30;99.90
17728;DHT22;8984;49.268;12.302;2023-04-07T05:34:25;5.70;99.90
17728;DHT22;8984;49.268;12.302;2023-04-07T05:36:52;6.10;99.90
17728;DHT22;8984;49.268;12.302;2023-04-07T05:39:19;6.30;99.90
17728;DHT22;8984;49.268;12.302;2023-04-07T05:41:46;6.70;99.90
17728;DHT22;8984;49.268;12.302;2023-04-07T05:44:12;6.90;99.90
17728;DHT22;8984;49.268;12.302;2023-04-07T05:46:39;7.10;99.90
17728;DHT22;8984;49.268;12.302;2023-04-07T05:49:07;7.20;99.90
17728;DHT22;8984;49.268;12.302;2023-04-07T05:51:34;7.40;99.90
17728;DHT22;8984;49.268;12.302;2023-04-07T05:54:01;7.60;99.90
17728;DHT22;8984;49.268;12.302;2023-04-07T05:56:28;7.60;99.90
17728;DHT22;8984;49.268;12.302;2023-04-07T05:58:55;7.70;99.90
17728;DHT22;8984;49.268;12.302;2023-04-07T06:01:23;7.70;99.90
17728;DHT22;8984;49.268;12.302;2023-04-07T06:03:50;7.70;99.90
17728;DHT22;8984;49.268;12.302;2023-04-07T06:06:18;7.70;99.90
17728;DHT22;8984;49.268;12.302;2023-04-07T06:08:45;7.70;99.90
17728;DHT22;8984;49.268;12.302;2023-04-07T06:11:12;7.60;99.90
17728;DHT22;8984;49.268;12.302;2023-04-07T06:13:39;7.60;99.90
17728;DHT22;8984;49.268;12.302;2023-04-07T06:16:06;7.50;99.90
17728;DHT22;8984;49.268;12.302;2023-04-07T06:18:33;7.50;99.90
17728;DHT22;8984;49.268;12.302;2023-04-07T06:21:00;7.40;99.90
17728;DHT22;8984;49.268;12.302;2023-04-07T06:23:28;7.50;99.90
17728;DHT22;8984;49.268;12.302;2023-04-07T06:25:55;7.70;99.90
17728;DHT22;8984;49.268;12.302;2023-04-07T06:28:21;7.70;99.90
17728;DHT22;8984;49.268;12.302;2023-04-07T06:30:49;7.90;99.90
17728;DHT22;8984;49.268;12.302;2023-04-07T06:33:15;8.10;99.90
17728;DHT22;8984;49.268;12.302;2023-04-07T06:35:43;8.20;99.90
17728;DHT22;8984;49.268;12.302;2023-04-07T06:38:10;8.30;99.90
17728;DHT22;8984;49.268;12.302;2023-04-07T06:40:38;8.40;99.90
17728;DHT22;8984;49.268;12.302;2023-04-07T06:43:05;8.50;99.90
17728;DHT22;8984;49.268;12.302;2023-04-07T06:45:32;8.60;99.90
17728;DHT22;8984;49.268;12.302;2023-04-07T06:47:58;8.60;99.90
17728;DHT22;8984;49.268;12.302;2023-04-07T06:50:25;8.70;99.90
17728;DHT22;8984;49.268;12.302;2023-04-07T06:52:52;8.80;99.90
17728;DHT22;8984;49.268;12.302;2023-04-07T06:55:19;8.90;99.90
17728;DHT22;8984;49.268;12.302;2023-04-07T06:57:47;9.00;99.90
17728;DHT22;8984;49.268;12.302;2023-04-07T07:00:17;9.10;99.90
17728;DHT22;8984;49.268;12.302;2023-04-07T07:02:43;9.30;99.90
17728;DHT22;8984;49.268;12.302;2023-04-07T07:05:10;9.40;99.90
17728;DHT22;8984;49.268;12.302;2023-04-07T07:07:37;9.50;99.90
17728;DHT22;8984;49.268;12.302;2023-04-07T07:10:05;9.60;99.90
17728;DHT22;8984;49.268;12.302;2023-04-07T07:12:32;9.70;99.90
17728;DHT22;8984;49.268;12.302;2023-04-07T07:15:00;9.80;99.90
17728;DHT22;8984;49.268;12.302;2023-04-07T07:17:26;9.90;99.90
17728;DHT22;8984;49.268;12.302;2023-04-07T07:19:53;10.00;99.90
17728;DHT22;8984;49.268;12.302;2023-04-07T07:22:20;10.20;99.90
17728;DHT22;8984;49.268;12.302;2023-04-07T07:24:47;10.40;99.90
17728;DHT22;8984;49.268;12.302;2023-04-07T07:27:13;10.60;99.90
17728;DHT22;8984;49.268;12.302;2023-04-07T07:29:40;10.60;99.90
17728;DHT22;8984;49.268;12.302;2023-04-07T07:32:09;10.60;99.90
17728;DHT22;8984;49.268;12.302;2023-04-07T07:34:35;10.60;99.90
17728;DHT22;8984;49.268;12.302;2023-04-07T07:37:02;10.80;99.90
17728;DHT22;8984;49.268;12.302;2023-04-07T07:39:29;11.00;99.90
17728;DHT22;8984;49.268;12.302;2023-04-07T07:41:56;11.10;99.90
17728;DHT22;8984;49.268;12.302;2023-04-07T07:44:22;11.20;99.40
17728;DHT22;8984;49.268;12.302;2023-04-07T07:46:49;11.30;99.10
17728;DHT22;8984;49.268;12.302;2023-04-07T07:49:17;11.40;98.80
17728;DHT22;8984;49.268;12.302;2023-04-07T07:51:44;11.50;99.10
17728;DHT22;8984;49.268;12.302;2023-04-07T07:54:11;11.60;98.70
17728;DHT22;8984;49.268;12.302;2023-04-07T07:56:38;11.40;98.10
17728;DHT22;8984;49.268;12.302;2023-04-07T07:59:05;11.40;98.10
17728;DHT22;8984;49.268;12.302;2023-04-07T08:01:32;11.50;98.50
17728;DHT22;8984;49.268;12.302;2023-04-07T08:03:59;11.70;98.70
17728;DHT22;8984;49.268;12.302;2023-04-07T08:06:27;11.80;98.30
17728;DHT22;8984;49.268;12.302;2023-04-07T08:08:56;12.00;97.90
17728;DHT22;8984;49.268;12.302;2023-04-07T08:11:23;12.20;97.70
17728;DHT22;8984;49.268;12.302;2023-04-07T08:13:50;12.30;97.50
17728;DHT22;8984;49.268;12.302;2023-04-07T08:16:18;12.50;97.20
17728;DHT22;8984;49.268;12.302;2023-04-07T08:18:45;12.60;97.00
17728;DHT22;8984;49.268;12.302;2023-04-07T08:21:12;12.50;96.80
17728;DHT22;8984;49.268;12.302;2023-04-07T08:23:40;12.50;96.90
17728;DHT22;8984;49.268;12.302;2023-04-07T08:26:07;12.60;96.40
17728;DHT22;8984;49.268;12.302;2023-04-07T08:28:33;12.70;96.30
17728;DHT22;8984;49.268;12.302;2023-04-07T08:31:00;12.80;96.40
17728;DHT22;8984;49.268;12.302;2023-04-07T08:33:27;12.80;96.10
17728;DHT22;8984;49.268;12.302;2023-04-07T08:35:54;13.10;95.90
17728;DHT22;8984;49.268;12.302;2023-04-07T08:38:21;13.30;95.60
17728;DHT22;8984;49.268;12.302;2023-04-07T08:40:53;13.20;94.90
17728;DHT22;8984;49.268;12.302;2023-04-07T08:43:25;12.80;94.30
17728;DHT22;8984;49.268;12.302;2023-04-07T08:45:54;12.90;95.00
17728;DHT22;8984;49.268;12.302;2023-04-07T08:48:22;13.10;94.90
17728;DHT22;8984;49.268;12.302;2023-04-07T08:50:52;13.00;95.40
17728;DHT22;8984;49.268;12.302;2023-04-07T08:53:23;13.30;99.90
17728;DHT22;8984;49.268;12.302;2023-04-07T08:55:54;13.70;98.00
17728;DHT22;8984;49.268;12.302;2023-04-07T08:58:21;14.00;98.20
17728;DHT22;8984;49.268;12.302;2023-04-07T09:00:49;14.20;95.90
17728;DHT22;8984;49.268;12.302;2023-04-07T09:03:16;14.30;94.40
17728;DHT22;8984;49.268;12.302;2023-04-07T09:05:44;14.20;94.00
17728;DHT22;8984;49.268;12.302;2023-04-07T09:08:11;14.40;94.50
17728;DHT22;8984;49.268;12.302;2023-04-07T09:10:38;14.60;95.40
17728;DHT22;8984;49.268;12.302;2023-04-07T09:13:06;14.80;94.70
17728;DHT22;8984;49.268;12.302;2023-04-07T09:15:33;14.70;93.40
17728;DHT22;8984;49.268;12.302;2023-04-07T09:18:00;14.90;93.70
17728;DHT22;8984;49.268;12.302;2023-04-07T09:20:26;15.30;92.70
17728;DHT22;8984;49.268;12.302;2023-04-07T09:22:53;15.20;92.00
17728;DHT22;8984;49.268;12.302;2023-04-07T09:25:23;15.30;92.50
17728;DHT22;8984;49.268;12.302;2023-04-07T09:27:58;15.40;92.00
17728;DHT22;8984;49.268;12.302;2023-04-07T09:30:27;15.50;92.00
17728;DHT22;8984;49.268;12.302;2023-04-07T09:32:54;15.60;92.00
17728;DHT22;8984;49.268;12.302;2023-04-07T09:35:22;15.70;91.90
17728;DHT22;8984;49.268;12.302;2023-04-07T09:38:03;15.80;91.20
17728;DHT22;8984;49.268;12.302;2023-04-07T09:40:30;15.50;90.80
17728;DHT22;8984;49.268;12.302;2023-04-07T09:42:56;15.40;91.10
17728;DHT22;8984;49.268;12.302;2023-04-07T09:45:24;15.40;90.70
17728;DHT22;8984;49.268;12.302;2023-04-07T09:47:53;15.30;89.60
17728;DHT22;8984;49.268;12.302;2023-04-07T09:50:30;15.40;90.30
17728;DHT22;8984;49.268;12.302;2023-04-07T09:52:59;15.80;90.30
17728;DHT22;8984;49.268;12.302;2023-04-07T09:55:27;15.90;89.80
17728;DHT22;8984;49.268;12.302;2023-04-07T09:57:54;16.00;91.00
17728;DHT22;8984;49.268;12.302;2023-04-07T10:00:22;16.20;90.10
17728;DHT22;8984;49.268;12.302;2023-04-07T10:02:49;16.40;90.00
17728;DHT22;8984;49.268;12.302;2023-04-07T10:05:19;16.40;89.80
17728;DHT22;8984;49.268;12.302;2023-04-07T10:07:47;16.40;90.10
17728;DHT22;8984;49.268;12.302;2023-04-07T10:10:14;16.50;90.20
17728;DHT22;8984;49.268;12.302;2023-04-07T10:12:41;16.50;90.10
17728;DHT22;8984;49.268;12.302;2023-04-07T10:15:11;16.30;89.10
17728;DHT22;8984;49.268;12.302;2023-04-07T10:17:41;16.40;87.80
17728;DHT22;8984;49.268;12.302;2023-04-07T10:20:11;16.60;89.50
17728;DHT22;8984;49.268;12.302;2023-04-07T10:22:40;16.70;87.80
17728;DHT22;8984;49.268;12.302;2023-04-07T10:25:09;17.00;87.40
17728;DHT22;8984;49.268;12.302;2023-04-07T10:27:41;17.10;85.40
17728;DHT22;8984;49.268;12.302;2023-04-07T10:30:17;17.30;83.70
17728;DHT22;8984;49.268;12.302;2023-04-07T10:32:47;17.30;82.20
17728;DHT22;8984;49.268;12.302;2023-04-07T10:35:15;17.40;81.30
17728;DHT22;8984;49.268;12.302;2023-04-07T10:38:08;17.30;80.00
17728;DHT22;8984;49.268;12.302;2023-04-07T10:40:37;17.20;81.20
17728;DHT22;8984;49.268;12.302;2023-04-07T10:43:04;17.40;82.80
17728;DHT22;8984;49.268;12.302;2023-04-07T10:45:53;17.60;82.90
17728;DHT22;8984;49.268;12.302;2023-04-07T10:48:24;17.70;80.70
17728;DHT22;8984;49.268;12.302;2023-04-07T10:51:13;17.50;79.80
17728;DHT22;8984;49.268;12.302;2023-04-07T10:57:10;17.60;80.40
17728;DHT22;8984;49.268;12.302;2023-04-07T10:59:39;17.90;80.80
17728;DHT22;8984;49.268;12.302;2023-04-07T11:02:30;18.00;80.00
17728;DHT22;8984;49.268;12.302;2023-04-07T11:04:58;17.90;76.80
17728;DHT22;8984;49.268;12.302;2023-04-07T11:07:43;17.90;77.70
17728;DHT22;8984;49.268;12.302;2023-04-07T11:10:11;18.10;77.70
17728;DHT22;8984;49.268;12.302;2023-04-07T11:12:41;18.10;75.60
17728;DHT22;8984;49.268;12.302;2023-04-07T11:15:21;18.10;74.30
17728;DHT22;8984;49.268;12.302;2023-04-07T11:18:06;18.10;74.50
17728;DHT22;8984;49.268;12.302;2023-04-07T11:20:47;18.30;73.70
17728;DHT22;8984;49.268;12.302;2023-04-07T11:23:15;18.30;75.30
17728;DHT22;8984;49.268;12.302;2023-04-07T11:25:43;18.30;73.40
17728;DHT22;8984;49.268;12.302;2023-04-07T11:28:13;18.30;72.90
17728;DHT22;8984;49.268;12.302;2023-04-07T11:30:45;18.20;74.20
17728;DHT22;8984;49.268;12.302;2023-04-07T11:33:16;18.40;74.10
17728;DHT22;8984;49.268;12.302;2023-04-07T11:35:51;18.50;74.90
17728;DHT22;8984;49.268;12.302;2023-04-07T11:38:18;18.50;74.00
17728;DHT22;8984;49.268;12.302;2023-04-07T11:40:45;18.60;74.70
17728;DHT22;8984;49.268;12.302;2023-04-07T11:43:22;18.60;74.50
17728;DHT22;8984;49.268;12.302;2023-04-07T11:46:06;18.40;72.40
17728;DHT22;8984;49.268;12.302;2023-04-07T11:48:33;18.30;74.80
17728;DHT22;8984;49.268;12.302;2023-04-07T11:51:01;18.20;73.50
17728;DHT22;8984;49.268;12.302;2023-04-07T11:53:29;18.40;75.40
17728;DHT22;8984;49.268;12.302;2023-04-07T11:56:01;18.60;74.80
17728;DHT22;8984;49.268;12.302;2023-04-07T11:58:29;18.60;74.00
17728;DHT22;8984;49.268;12.302;2023-04-07T12:00:57;18.80;73.10
17728;DHT22;8984;49.268;12.302;2023-04-07T12:03:28;18.80;72.60
17728;DHT22;8984;49.268;12.302;2023-04-07T12:05:54;18.90;73.30
17728;DHT22;8984;49.268;12.302;2023-04-07T12:08:36;18.80;72.60
17728;DHT22;8984;49.268;12.302;2023-04-07T12:11:03;19.10;72.10
17728;DHT22;8984;49.268;12.302;2023-04-07T12:13:31;19.30;73.10
17728;DHT22;8984;49.268;12.302;2023-04-07T12:15:58;19.20;71.30
17728;DHT22;8984;49.268;12.302;2023-04-07T12:18:26;19.40;71.50
17728;DHT22;8984;49.268;12.302;2023-04-07T12:20:54;19.60;70.30
17728;DHT22;8984;49.268;12.302;2023-04-07T12:23:22;19.90;70.30
17728;DHT22;8984;49.268;12.302;2023-04-07T12:25:49;20.10;71.20
17728;DHT22;8984;49.268;12.302;2023-04-07T12:28:16;19.80;70.80
17728;DHT22;8984;49.268;12.302;2023-04-07T12:30:45;20.10;70.50
17728;DHT22;8984;49.268;12.302;2023-04-07T12:33:11;19.60;71.10
17728;DHT22;8984;49.268;12.302;2023-04-07T12:35:38;20.00;70.80
17728;DHT22;8984;49.268;12.302;2023-04-07T12:38:05;20.10;70.20
17728;DHT22;8984;49.268;12.302;2023-04-07T12:40:32;19.90;68.90
17728;DHT22;8984;49.268;12.302;2023-04-07T12:43:00;19.80;68.60
17728;DHT22;8984;49.268;12.302;2023-04-07T12:45:28;19.80;68.00
17728;DHT22;8984;49.268;12.302;2023-04-07T12:47:57;19.70;68.50
17728;DHT22;8984;49.268;12.302;2023-04-07T12:50:23;19.80;68.90
17728;DHT22;8984;49.268;12.302;2023-04-07T12:52:51;19.90;66.90
17728;DHT22;8984;49.268;12.302;2023-04-07T12:55:19;20.10;67.40
17728;DHT22;8984;49.268;12.302;2023-04-07T12:57:46;20.00;67.00
17728;DHT22;8984;49.268;12.302;2023-04-07T13:00:13;20.00;68.00
17728;DHT22;8984;49.268;12.302;2023-04-07T13:02:41;19.90;68.20
17728;DHT22;8984;49.268;12.302;2023-04-07T13:05:09;20.20;67.30
17728;DHT22;8984;49.268;12.302;2023-04-07T13:07:36;20.30;65.90
17728;DHT22;8984;49.268;12.302;2023-04-07T13:10:03;20.40;65.30
17728;DHT22;8984;49.268;12.302;2023-04-07T13:12:32;20.30;63.70
17728;DHT22;8984;49.268;12.302;2023-04-07T13:14:59;20.00;64.40
17728;DHT22;8984;49.268;12.302;2023-04-07T13:17:26;19.50;64.50
17728;DHT22;8984;49.268;12.302;2023-04-07T13:19:54;19.60;65.70
17728;DHT22;8984;49.268;12.302;2023-04-07T13:22:22;19.60;64.60
17728;DHT22;8984;49.268;12.302;2023-04-07T13:24:49;19.50;65.60
17728;DHT22;8984;49.268;12.302;2023-04-07T13:27:16;19.50;66.10
17728;DHT22;8984;49.268;12.302;2023-04-07T13:29:43;19.50;65.20
17728;DHT22;8984;49.268;12.302;2023-04-07T13:32:10;19.40;66.10
17728;DHT22;8984;49.268;12.302;2023-04-07T13:34:39;19.10;65.40
17728;DHT22;8984;49.268;12.302;2023-04-07T13:37:06;19.10;66.40
17728;DHT22;8984;49.268;12.302;2023-04-07T13:39:34;19.30;65.70
17728;DHT22;8984;49.268;12.302;2023-04-07T13:42:01;19.20;66.10
17728;DHT22;8984;49.268;12.302;2023-04-07T13:44:29;19.10;65.60
17728;DHT22;8984;49.268;12.302;2023-04-07T13:46:56;18.90;66.10
17728;DHT22;8984;49.268;12.302;2023-04-07T13:49:23;19.10;66.80
17728;DHT22;8984;49.268;12.302;2023-04-07T13:51:50;19.20;65.80
17728;DHT22;8984;49.268;12.302;2023-04-07T13:54:17;19.30;65.30
17728;DHT22;8984;49.268;12.302;2023-04-07T13:56:45;19.50;64.70
17728;DHT22;8984;49.268;12.302;2023-04-07T13:59:13;19.60;63.80
17728;DHT22;8984;49.268;12.302;2023-04-07T14:01:40;19.50;64.60
17728;DHT22;8984;49.268;12.302;2023-04-07T14:04:07;19.30;63.50
17728;DHT22;8984;49.268;12.302;2023-04-07T14:06:34;19.30;64.00
17728;DHT22;8984;49.268;12.302;2023-04-07T14:09:02;19.10;63.30
17728;DHT22;8984;49.268;12.302;2023-04-07T14:11:31;18.90;63.50
17728;DHT22;8984;49.268;12.302;2023-04-07T14:14:00;19.00;64.40
17728;DHT22;8984;49.268;12.302;2023-04-07T14:16:27;19.00;64.30
17728;DHT22;8984;49.268;12.302;2023-04-07T14:18:54;18.80;63.40
17728;DHT22;8984;49.268;12.302;2023-04-07T14:21:21;18.90;64.20
17728;DHT22;8984;49.268;12.302;2023-04-07T14:23:48;19.00;64.20
17728;DHT22;8984;49.268;12.302;2023-04-07T14:26:15;19.00;64.60
17728;DHT22;8984;49.268;12.302;2023-04-07T14:28:42;18.90;64.00
17728;DHT22;8984;49.268;12.302;2023-04-07T14:31:13;19.10;63.50
17728;DHT22;8984;49.268;12.302;2023-04-07T14:33:40;18.80;63.50
17728;DHT22;8984;49.268;12.302;2023-04-07T14:36:06;18.60;64.00
17728;DHT22;8984;49.268;12.302;2023-04-07T14:38:33;18.30;64.90
17728;DHT22;8984;49.268;12.302;2023-04-07T14:41:00;18.00;65.30
17728;DHT22;8984;49.268;12.302;2023-04-07T14:43:28;17.90;64.90
17728;DHT22;8984;49.268;12.302;2023-04-07T14:45:54;18.10;64.00
17728;DHT22;8984;49.268;12.302;2023-04-07T14:48:23;18.00;64.30
17728;DHT22;8984;49.268;12.302;2023-04-07T14:50:50;18.10;63.60
17728;DHT22;8984;49.268;12.302;2023-04-07T14:53:17;18.10;64.50
17728;DHT22;8984;49.268;12.302;2023-04-07T14:55:45;18.00;64.40
17728;DHT22;8984;49.268;12.302;2023-04-07T14:58:11;17.80;63.80
17728;DHT22;8984;49.268;12.302;2023-04-07T15:00:38;17.80;64.90
17728;DHT22;8984;49.268;12.302;2023-04-07T15:03:05;17.80;65.10
17728;DHT22;8984;49.268;12.302;2023-04-07T15:05:33;17.80;65.40
17728;DHT22;8984;49.268;12.302;2023-04-07T15:08:00;18.00;64.90
17728;DHT22;8984;49.268;12.302;2023-04-07T15:10:27;18.10;64.80
17728;DHT22;8984;49.268;12.302;2023-04-07T15:12:54;18.00;64.50
17728;DHT22;8984;49.268;12.302;2023-04-07T15:15:21;18.00;64.90
17728;DHT22;8984;49.268;12.302;2023-04-07T15:17:49;18.00;64.50
17728;DHT22;8984;49.268;12.302;2023-04-07T15:20:16;18.10;65.00
17728;DHT22;8984;49.268;12.302;2023-04-07T15:22:44;17.90;64.50
17728;DHT22;8984;49.268;12.302;2023-04-07T15:25:11;17.90;64.90
17728;DHT22;8984;49.268;12.302;2023-04-07T15:27:38;17.90;65.00
17728;DHT22;8984;49.268;12.302;2023-04-07T15:30:05;17.90;64.30
17728;DHT22;8984;49.268;12.302;2023-04-07T15:32:32;17.60;65.20
17728;DHT22;8984;49.268;12.302;2023-04-07T15:34:59;17.40;65.70
17728;DHT22;8984;49.268;12.302;2023-04-07T15:37:26;17.40;66.30
17728;DHT22;8984;49.268;12.302;2023-04-07T15:39:54;17.50;65.90
17728;DHT22;8984;49.268;12.302;2023-04-07T15:42:21;17.40;66.10
17728;DHT22;8984;49.268;12.302;2023-04-07T15:44:48;17.30;66.30
17728;DHT22;8984;49.268;12.302;2023-04-07T15:47:15;17.30;66.00